Time;durP1;ratioP1;P1;durP2;ratioP2;P2;SDS_P1;SDS_P2;PMS_P1;PMS_P2;Temp;Humidity;BMP_temperature;BMP_pressure;BME280_temperature;BME280_humidity;BME280_pressure;Samples;Min_cycle;Max_cycle;Signal;HPM_P1;HPM_P2
2022/11/19 00:00:00;;;;;;;26.88;3.50;;;18.10;99.90;;;;;;5091363;28;20380;-77
2022/11/19 00:02:26;;;;;;;25.42;3.83;;;18.10;99.90;;;;;;5092399;28;20027;-77
2022/11/19 00:04:52;;;;;;;26.77;3.80;;;18.10;99.90;;;;;;5091187;28;20020;-77
2022/11/19 00:07:18;;;;;;;21.20;3.45;;;18.10;99.90;;;;;;5072942;28;20028;-77
2022/11/19 00:09:44;;;;;;;14.70;3.20;;;18.10;99.90;;;;;;5090990;28;20024;-77
2022/11/19 00:14:54;;;;;;;16.95;3.00;;;18.10;99.90;;;;;;5091248;28;20079;-77
2022/11/19 00:17:20;;;;;;;18.50;3.13;;;18.10;99.90;;;;;;5091261;28;20038;-78
2022/11/19 00:19:46;;;;;;;23.27;3.30;;;18.00;99.90;;;;;;5091472;28;20020;-77
2022/11/19 00:22:12;;;;;;;20.88;3.58;;;18.00;99.90;;;;;;5091053;28;20103;-77
2022/11/19 00:24:38;;;;;;;21.15;4.30;;;18.00;99.90;;;;;;5091068;28;20141;-78
2022/11/19 00:27:05;;;;;;;15.02;3.28;;;18.00;99.90;;;;;;5091043;28;20024;-77
2022/11/19 00:29:31;;;;;;;21.70;3.92;;;18.00;99.90;;;;;;5091532;28;20020;-76
2022/11/19 00:31:57;;;;;;;15.45;3.90;;;18.00;99.90;;;;;;5072802;28;20024;-77
2022/11/19 00:34:23;;;;;;;18.80;3.88;;;18.00;99.90;;;;;;5091287;28;20031;-77
2022/11/19 00:36:49;;;;;;;17.67;3.35;;;18.00;99.90;;;;;;5091387;28;20127;-78
2022/11/19 00:39:15;;;;;;;12.45;3.53;;;18.00;99.90;;;;;;5091343;28;20028;-77
2022/11/19 00:41:41;;;;;;;11.70;3.33;;;17.90;99.90;;;;;;5091161;28;20135;-76
2022/11/19 00:44:07;;;;;;;17.55;3.63;;;17.90;99.90;;;;;;5091082;28;20494;-77
2022/11/19 00:46:33;;;;;;;16.00;3.22;;;17.90;99.90;;;;;;5090846;28;20022;-78
2022/11/19 00:49:00;;;;;;;20.50;4.20;;;17.90;99.90;;;;;;5091003;28;20107;-77
2022/11/19 00:51:28;;;;;;;16.63;3.40;;;17.90;99.90;;;;;;5090876;28;20032;-78
2022/11/19 00:53:55;;;;;;;10.50;3.05;;;17.90;99.90;;;;;;5091137;28;20029;-77
2022/11/19 00:56:23;;;;;;;17.13;3.40;;;17.90;99.90;;;;;;5090877;28;20028;-77
2022/11/19 00:58:50;;;;;;;17.25;2.58;;;17.90;99.90;;;;;;5090734;28;20028;-78
2022/11/19 01:01:18;;;;;;;11.57;2.90;;;17.90;99.90;;;;;;5093147;28;20421;-77
2022/11/19 01:03:44;;;;;;;16.60;3.00;;;17.90;99.90;;;;;;5094975;28;20030;-77
2022/11/19 01:06:11;;;;;;;12.25;2.88;;;17.80;99.90;;;;;;5095042;28;20112;-76
2022/11/19 01:08:37;;;;;;;11.77;2.70;;;17.80;99.90;;;;;;5094428;28;20042;-76
2022/11/19 01:11:12;;;;;;;8.63;2.38;;;17.80;99.90;;;;;;5094300;28;20048;-76
2022/11/19 01:13:39;;;;;;;12.20;2.70;;;17.80;99.90;;;;;;5094863;28;20016;-77
2022/11/19 01:16:06;;;;;;;;;;;17.80;99.90;;;;;;5095142;28;20115;-77
2022/11/19 01:18:33;;;;;;;15.07;2.55;;;17.80;99.90;;;;;;5094641;28;20003;-78
2022/11/19 01:20:59;;;;;;;13.13;2.67;;;17.80;99.90;;;;;;5075854;28;20071;-77
2022/11/19 01:23:25;;;;;;;10.40;2.80;;;17.80;99.90;;;;;;5094236;28;20020;-76
2022/11/19 01:25:51;;;;;;;15.55;2.85;;;17.80;99.90;;;;;;5094465;28;20065;-78
2022/11/19 01:28:17;;;;;;;11.43;2.40;;;17.80;99.90;;;;;;5094444;28;20106;-78
2022/11/19 01:30:43;;;;;;;11.15;2.90;;;17.80;99.90;;;;;;5094614;28;20024;-77
2022/11/19 01:33:10;;;;;;;15.25;2.53;;;17.80;99.90;;;;;;5075855;28;20126;-77
2022/11/19 01:35:36;;;;;;;;;;;17.70;99.90;;;;;;5094444;28;20107;-78
2022/11/19 01:38:04;;;;;;;12.02;2.60;;;17.80;99.90;;;;;;5094292;28;19996;-77
2022/11/19 01:40:30;;;;;;;11.52;2.10;;;17.80;99.90;;;;;;5093926;28;20024;-76
2022/11/19 01:42:56;;;;;;;10.70;2.15;;;17.80;99.90;;;;;;5075481;28;20106;-77
2022/11/19 01:45:30;;;;;;;9.73;2.28;;;17.80;99.90;;;;;;5093938;28;20095;-78
2022/11/19 01:48:26;;;;;;;12.35;2.35;;;17.90;99.90;;;;;;5093977;28;20036;-77
2022/11/19 01:50:56;;;;;;;;;;;17.80;99.90;;;;;;5094848;28;20046;-77
2022/11/19 01:53:26;;;;;;;14.48;2.42;;;17.90;99.90;;;;;;5093887;28;19953;-76
2022/11/19 01:55:54;;;;;;;14.25;2.28;;;17.80;99.90;;;;;;5093910;28;20039;-78
2022/11/19 01:58:23;;;;;;;12.60;2.50;;;17.80;99.90;;;;;;5093709;28;20020;-76
2022/11/19 02:00:49;;;;;;;10.18;2.47;;;17.80;99.90;;;;;;5075312;28;20364;-77
2022/11/19 02:03:17;;;;;;;9.80;1.95;;;17.90;99.90;;;;;;5075186;28;20020;-73
2022/11/19 02:05:45;;;;;;;11.88;2.38;;;17.90;99.90;;;;;;5093905;28;20107;-77
2022/11/19 02:08:35;;;;;;;7.45;2.33;;;18.00;99.90;;;;;;5093677;28;20107;-75
2022/11/19 02:11:16;;;;;;;9.20;2.20;;;18.00;99.90;;;;;;5093304;28;20460;-77
2022/11/19 02:14:02;;;;;;;9.90;2.40;;;18.00;99.90;;;;;;5093196;28;20032;-77
2022/11/19 02:16:28;;;;;;;9.32;2.10;;;18.00;99.90;;;;;;5093570;28;20479;-77
2022/11/19 02:19:31;;;;;;;11.05;2.20;;;18.00;99.90;;;;;;5093603;28;20131;-77
2022/11/19 02:22:35;;;;;;;10.57;2.20;;;18.10;99.90;;;;;;5093514;28;20586;-77
2022/11/19 02:25:38;;;;;;;11.88;2.13;;;18.10;99.90;;;;;;5093629;28;20032;-77
2022/11/19 02:28:42;;;;;;;10.93;2.67;;;18.10;99.90;;;;;;5093323;28;20032;-77
2022/11/19 02:31:14;;;;;;;6.88;2.13;;;18.20;99.90;;;;;;5093388;28;20127;-78
2022/11/19 02:33:56;;;;;;;7.63;2.17;;;18.20;99.90;;;;;;5093391;28;20023;-77
2022/11/19 02:36:30;;;;;;;11.63;2.17;;;18.20;99.90;;;;;;5093124;28;20116;-77
2022/11/19 02:39:00;;;;;;;9.02;2.72;;;18.30;99.90;;;;;;5093424;28;20028;-77
2022/11/19 02:41:39;;;;;;;7.97;2.10;;;18.20;99.90;;;;;;5093439;28;20035;-77
2022/11/19 02:46:53;;;;;;;9.20;2.10;;;18.20;99.90;;;;;;5050968;28;20056;-76
2022/11/19 02:49:23;;;;;;;10.32;2.50;;;18.20;99.90;;;;;;5093135;28;20100;-77
2022/11/19 02:51:49;;;;;;;7.25;2.33;;;18.10;99.90;;;;;;5092849;28;20016;-77
2022/11/19 02:54:16;;;;;;;7.43;2.30;;;18.10;99.90;;;;;;5092937;28;20035;-78
2022/11/19 02:56:50;;;;;;;9.10;2.53;;;18.10;99.90;;;;;;5092600;28;20472;-76
2022/11/19 03:05:05;;;;;;;9.98;2.90;;;18.10;99.90;;;;;;5092958;28;20121;-78
2022/11/19 03:07:31;;;;;;;5.78;2.60;;;18.10;99.90;;;;;;5092698;28;20069;-77
2022/11/19 03:10:02;;;;;;;10.45;2.88;;;18.00;99.90;;;;;;5092270;28;20055;-77
2022/11/19 03:12:52;;;;;;;11.40;3.47;;;18.10;99.90;;;;;;5092600;28;20023;-78
2022/11/19 03:18:30;;;;;;;10.75;2.95;;;18.00;99.90;;;;;;5092587;28;20121;-78
2022/11/19 03:21:27;;;;;;;7.80;2.90;;;18.00;99.90;;;;;;5092623;28;20027;-77
2022/11/19 03:23:59;;;;;;;9.05;3.03;;;18.00;99.90;;;;;;5092365;28;20372;-77
2022/11/19 03:26:32;;;;;;;15.25;3.50;;;18.00;99.90;;;;;;5092525;28;20077;-78
2022/11/19 03:29:03;;;;;;;7.15;3.53;;;18.00;99.90;;;;;;5092024;28;20016;-77
2022/11/19 03:31:30;;;;;;;12.75;3.28;;;17.90;99.90;;;;;;5092494;28;20019;-77
2022/11/19 03:33:59;;;;;;;9.90;3.13;;;17.90;99.90;;;;;;5074051;28;20102;-78
2022/11/19 03:36:40;;;;;;;7.63;2.70;;;18.00;99.90;;;;;;5092347;28;20462;-77
2022/11/19 03:39:11;;;;;;;10.68;3.10;;;18.00;99.90;;;;;;5092384;28;20348;-76
2022/11/19 03:41:40;;;;;;;6.93;2.55;;;18.00;99.90;;;;;;5092491;28;20119;-77
2022/11/19 03:44:15;;;;;;;11.57;3.60;;;18.00;99.90;;;;;;5092091;28;20021;-78
2022/11/19 03:46:43;;;;;;;14.55;3.03;;;18.00;99.90;;;;;;5092189;28;20020;-78
2022/11/19 03:49:10;;;;;;;8.98;2.72;;;18.00;99.90;;;;;;5072965;28;20549;-77
2022/11/19 03:51:47;;;;;;;11.13;3.03;;;18.00;99.90;;;;;;5091567;28;20103;-77
2022/11/19 03:54:13;;;;;;;10.18;2.90;;;18.00;99.90;;;;;;5091435;28;20116;-77
2022/11/19 03:56:42;;;;;;;10.13;2.63;;;18.10;99.90;;;;;;5091262;28;20354;-77
2022/11/19 03:59:10;;;;;;;12.35;3.15;;;18.10;99.90;;;;;;5092003;28;20028;-77
2022/11/19 04:01:37;;;;;;;9.75;3.25;;;18.00;99.90;;;;;;5091746;28;20440;-77
2022/11/19 04:06:48;;;;;;;13.50;3.28;;;18.00;99.90;;;;;;5091882;28;20478;-77
2022/11/19 04:09:14;;;;;;;11.30;3.17;;;18.10;99.90;;;;;;5073964;28;20384;-78
2022/11/19 04:11:40;;;;;;;8.88;2.78;;;18.20;99.90;;;;;;5091602;28;20048;-77
2022/11/19 04:14:06;;;;;;;15.38;4.15;;;18.20;99.90;;;;;;5092244;28;20050;-78
2022/11/19 04:16:32;;;;;;;9.18;2.85;;;18.20;99.90;;;;;;5092133;28;20408;-77
2022/11/19 04:18:58;;;;;;;8.57;3.22;;;18.20;99.90;;;;;;5073235;28;20066;-77
2022/11/19 04:21:24;;;;;;;6.43;2.63;;;18.10;99.90;;;;;;5091497;28;20055;-78
2022/11/19 04:23:50;;;;;;;17.52;3.25;;;18.10;99.90;;;;;;5091913;28;20035;-76
2022/11/19 04:26:16;;;;;;;13.63;3.15;;;18.20;99.90;;;;;;5092665;28;20127;-76
2022/11/19 04:28:42;;;;;;;11.77;3.50;;;18.10;99.90;;;;;;5073958;28;20515;-77
2022/11/19 04:31:08;;;;;;;12.02;3.33;;;18.10;99.90;;;;;;5092457;28;20067;-77
2022/11/19 04:33:34;;;;;;;13.13;3.67;;;18.20;99.90;;;;;;5092705;28;20502;-78
2022/11/19 04:36:00;;;;;;;12.82;3.53;;;18.10;99.90;;;;;;5094277;28;20036;-76
2022/11/19 04:38:26;;;;;;;11.35;3.60;;;18.10;99.90;;;;;;5096121;28;20509;-75
2022/11/19 04:40:52;;;;;;;13.00;3.80;;;18.10;99.90;;;;;;5077499;28;20206;-78
2022/11/19 04:43:18;;;;;;;13.02;4.47;;;18.20;99.90;;;;;;5096149;28;20089;-78
2022/11/19 04:45:44;;;;;;;10.07;3.60;;;18.20;99.90;;;;;;5095846;28;20022;-77
2022/11/19 04:48:10;;;;;;;17.90;4.30;;;18.30;99.90;;;;;;5095749;28;20189;-76
2022/11/19 04:50:36;;;;;;;17.10;4.65;;;18.30;99.90;;;;;;5096009;28;20511;-78
2022/11/19 04:53:02;;;;;;;19.20;4.10;;;18.30;99.90;;;;;;5095911;28;20057;-77
2022/11/19 04:55:28;;;;;;;18.08;4.70;;;18.40;99.90;;;;;;5095614;28;20311;-78
2022/11/19 04:57:54;;;;;;;21.67;4.90;;;18.40;99.90;;;;;;5095971;28;20379;-78
2022/11/19 05:00:20;;;;;;;18.58;4.80;;;18.40;99.90;;;;;;5095880;28;20024;-77
2022/11/19 05:02:46;;;;;;;20.42;4.72;;;18.40;99.90;;;;;;5095574;28;20338;-77
2022/11/19 05:05:12;;;;;;;16.63;4.22;;;18.50;99.90;;;;;;5095882;28;20031;-77
2022/11/19 05:07:38;;;;;;;17.95;4.35;;;18.40;99.90;;;;;;5095664;28;20069;-78
2022/11/19 05:10:05;;;;;;;22.90;4.75;;;18.50;99.90;;;;;;5076701;28;20097;-78
2022/11/19 05:12:31;;;;;;;21.83;4.07;;;18.50;99.90;;;;;;5095637;28;20444;-78
2022/11/19 05:14:57;;;;;;;21.70;4.20;;;18.50;99.90;;;;;;5095086;28;20032;-77
2022/11/19 05:17:23;;;;;;;16.88;4.32;;;18.50;99.90;;;;;;5095414;28;20115;-77
2022/11/19 05:19:49;;;;;;;26.67;4.57;;;18.50;99.90;;;;;;5094329;28;20028;-74
2022/11/19 05:22:15;;;;;;;14.80;3.78;;;18.40;99.90;;;;;;5075596;28;20487;-77
2022/11/19 05:24:41;;;;;;;13.55;3.50;;;18.50;99.90;;;;;;5075360;28;20045;-77
2022/11/19 05:27:07;;;;;;;20.88;3.65;;;18.50;99.90;;;;;;5075555;28;20021;-78
2022/11/19 05:29:33;;;;;;;15.27;4.07;;;18.50;99.90;;;;;;5075444;28;20453;-78
2022/11/19 05:32:00;;;;;;;18.60;3.28;;;18.50;99.90;;;;;;5075038;28;20063;-77
2022/11/19 05:34:26;;;;;;;16.92;3.67;;;18.50;99.90;;;;;;5074913;28;20085;-78
2022/11/19 05:36:52;;;;;;;17.50;3.83;;;18.50;99.90;;;;;;5074832;28;20480;-77
2022/11/19 05:39:18;;;;;;;14.68;3.92;;;18.50;99.90;;;;;;5075161;28;20020;-77
2022/11/19 05:41:44;;;;;;;20.15;3.47;;;18.50;99.90;;;;;;5075306;28;20060;-77
2022/11/19 05:44:11;;;;;;;19.33;3.38;;;18.50;99.90;;;;;;5075150;28;20020;-76
2022/11/19 05:46:37;;;;;;;14.05;3.22;;;18.50;99.90;;;;;;5073627;28;20035;-78
2022/11/19 05:49:03;;;;;;;20.33;3.20;;;18.50;99.90;;;;;;5075088;28;20017;-77
2022/11/19 05:51:29;;;;;;;21.42;3.40;;;18.50;99.90;;;;;;5075083;28;20380;-77
2022/11/19 05:53:55;;;;;;;18.60;3.65;;;18.50;99.90;;;;;;5074814;28;20013;-77
2022/11/19 05:56:21;;;;;;;18.15;3.80;;;18.50;99.90;;;;;;5074917;28;20031;-75
2022/11/19 05:58:47;;;;;;;20.20;3.47;;;18.60;99.90;;;;;;5074731;28;20103;-77
2022/11/19 06:01:14;;;;;;;22.27;3.35;;;18.60;99.90;;;;;;5082591;28;20100;-77
2022/11/19 06:03:40;;;;;;;;;;;18.60;99.90;;;;;;5084602;28;20103;-76
2022/11/19 06:06:07;;;;;;;27.33;3.55;;;18.60;99.90;;;;;;5083194;28;19908;-75
2022/11/19 06:08:33;;;;;;;21.50;3.40;;;18.60;99.90;;;;;;5085567;28;20020;-76
2022/11/19 06:11:03;;;;;;;14.30;2.78;;;18.70;99.90;;;;;;5076158;28;20402;-77
2022/11/19 06:13:29;;;;;;;14.50;3.05;;;18.80;99.90;;;;;;5095007;28;20073;-78
2022/11/19 06:15:55;;;;;;;13.77;2.92;;;19.00;99.90;;;;;;5074941;28;20037;-77
2022/11/19 06:18:21;;;;;;;18.42;3.13;;;19.20;99.90;;;;;;5074606;28;20091;-77
2022/11/19 06:20:47;;;;;;;18.38;3.40;;;19.20;99.90;;;;;;5074175;28;20107;-77
2022/11/19 06:23:13;;;;;;;17.10;3.03;;;19.30;99.90;;;;;;5073617;28;20024;-76
2022/11/19 06:25:39;;;;;;;12.63;2.88;;;19.30;99.90;;;;;;5073890;28;20491;-77
2022/11/19 06:28:06;;;;;;;20.58;2.90;;;19.40;99.90;;;;;;5073060;28;20068;-76
2022/11/19 06:30:32;;;;;;;17.65;2.58;;;19.40;99.90;;;;;;5073625;28;20021;-77
2022/11/19 06:32:58;;;;;;;19.50;2.53;;;19.30;99.90;;;;;;5073259;28;20429;-78
2022/11/19 06:35:24;;;;;;;16.85;2.35;;;19.40;99.90;;;;;;5073399;28;20028;-78
2022/11/19 06:37:50;;;;;;;19.38;2.55;;;19.40;99.90;;;;;;5073192;28;20515;-78
2022/11/19 06:40:16;;;;;;;21.20;3.10;;;19.40;99.90;;;;;;5072854;28;20032;-77
2022/11/19 06:42:42;;;;;;;20.75;3.35;;;19.40;99.90;;;;;;5073165;28;20024;-77
2022/11/19 06:45:13;;;;;;;16.33;2.97;;;19.40;99.90;;;;;;5073014;28;20039;-79
2022/11/19 06:47:41;;;;;;;16.60;2.20;;;19.50;99.90;;;;;;5073271;28;20102;-74
2022/11/19 06:50:08;;;;;;;18.73;2.70;;;19.60;99.90;;;;;;5072634;28;20029;-72
2022/11/19 06:52:35;;;;;;;20.15;2.70;;;19.60;99.90;;;;;;5071856;28;20490;-72
2022/11/19 06:55:01;;;;;;;32.05;3.35;;;19.70;99.90;;;;;;5071865;28;20126;-72
2022/11/19 06:57:27;;;;;;;22.33;2.53;;;19.80;99.90;;;;;;5071525;28;20410;-73
2022/11/19 06:59:53;;;;;;;21.98;2.80;;;19.90;99.90;;;;;;5071536;28;20106;-72
2022/11/19 07:02:19;;;;;;;21.63;3.15;;;19.80;99.90;;;;;;5053821;28;20036;-73
2022/11/19 07:04:45;;;;;;;23.60;3.50;;;19.80;99.90;;;;;;5071927;28;20066;-73
2022/11/19 07:07:11;;;;;;;20.95;3.20;;;19.80;99.90;;;;;;5072156;28;20054;-70
2022/11/19 07:09:38;;;;;;;18.92;2.90;;;19.80;99.90;;;;;;5072470;28;20368;-72
2022/11/19 07:12:05;;;;;;;21.67;3.50;;;19.80;99.90;;;;;;5092665;28;20020;-73
2022/11/19 07:14:31;;;;;;;19.67;2.65;;;19.70;99.90;;;;;;5091893;28;20117;-73
2022/11/19 07:16:57;;;;;;;22.42;3.53;;;19.70;99.90;;;;;;5092488;28;20133;-72
2022/11/19 07:19:23;;;;;;;22.02;2.72;;;19.80;99.90;;;;;;5093079;28;20024;-71
2022/11/19 07:21:49;;;;;;;22.00;2.97;;;19.80;99.90;;;;;;5092935;28;20388;-72
2022/11/19 07:24:16;;;;;;;16.17;3.03;;;19.80;99.90;;;;;;5092579;28;20122;-72
2022/11/19 07:26:43;;;;;;;24.27;3.10;;;19.80;99.90;;;;;;5092403;28;20513;-73
2022/11/19 07:29:10;;;;;;;;;;;19.90;99.90;;;;;;5092788;28;20020;-72
2022/11/19 07:31:36;;;;;;;19.90;3.17;;;19.90;99.90;;;;;;5092468;28;20228;-72
2022/11/19 07:34:06;;;;;;;27.25;2.92;;;19.90;99.90;;;;;;5092417;28;20164;-73
2022/11/19 07:36:32;;;;;;;24.85;3.13;;;20.10;99.90;;;;;;5074211;28;20040;-72
2022/11/19 07:38:58;;;;;;;26.20;2.90;;;20.30;99.90;;;;;;5091212;28;20091;-73
2022/11/19 07:44:08;;;;;;;21.45;3.53;;;20.30;99.90;;;;;;5093088;28;20098;-72
2022/11/19 07:46:34;;;;;;;26.05;2.67;;;20.30;99.90;;;;;;5096794;28;20023;-73
2022/11/19 07:49:01;;;;;;;23.98;2.97;;;20.40;99.90;;;;;;5102140;28;20028;-72
2022/11/19 07:51:27;;;;;;;28.75;3.67;;;20.30;99.90;;;;;;5092544;28;20024;-73
2022/11/19 07:53:54;;;;;;;30.88;3.67;;;20.20;99.90;;;;;;5105691;28;20351;-74
2022/11/19 07:56:21;;;;;;;27.45;3.40;;;20.30;99.90;;;;;;5112500;28;20364;-73
2022/11/19 07:58:47;;;;;;;28.88;3.80;;;20.20;99.90;;;;;;5112586;28;20085;-78
2022/11/19 08:01:21;;;;;;;26.15;3.70;;;20.30;99.90;;;;;;5112899;28;20392;-73
2022/11/19 08:03:48;;;;;;;41.22;4.03;;;20.50;99.90;;;;;;5108032;28;20021;-72
2022/11/19 08:06:16;;;;;;;35.53;4.35;;;20.70;99.90;;;;;;5073455;28;20532;-71
2022/11/19 08:08:42;;;;;;;29.58;4.22;;;20.80;99.90;;;;;;5092373;28;20028;-70
2022/11/19 08:11:09;;;;;;;;;;;20.80;99.90;;;;;;5076419;28;20465;-71
2022/11/19 08:13:35;;;;;;;29.75;3.53;;;20.80;99.90;;;;;;5096383;28;19904;-72
2022/11/19 08:16:06;;;;;;;33.92;4.22;;;20.70;99.90;;;;;;5096384;28;20028;-75
2022/11/19 08:18:32;;;;;;;28.45;3.97;;;20.70;99.90;;;;;;5096473;28;20435;-70
2022/11/19 08:21:03;;;;;;;40.35;4.13;;;20.60;99.90;;;;;;5096458;28;20043;-71
2022/11/19 08:23:30;;;;;;;31.45;4.07;;;20.70;99.90;;;;;;5096027;28;20031;-71
2022/11/19 08:25:56;;;;;;;23.42;3.58;;;20.80;99.90;;;;;;5095821;28;20024;-72
2022/11/19 08:28:22;;;;;;;41.47;4.45;;;21.00;99.90;;;;;;5095649;28;20028;-71
2022/11/19 08:30:48;;;;;;;26.40;3.55;;;21.00;99.90;;;;;;5095662;28;20084;-71
2022/11/19 08:33:14;;;;;;;32.35;4.65;;;21.00;99.90;;;;;;5092412;28;20099;-71
2022/11/19 08:35:41;;;;;;;26.60;4.13;;;21.10;99.90;;;;;;5075337;28;20439;-71
2022/11/19 08:38:07;;;;;;;25.35;3.35;;;21.10;99.90;;;;;;5075296;28;20056;-71
2022/11/19 08:40:34;;;;;;;38.67;4.70;;;21.10;99.90;;;;;;5089263;28;20069;-72
2022/11/19 08:43:00;;;;;;;33.42;3.92;;;21.00;99.90;;;;;;5095127;28;20020;-71
2022/11/19 08:45:35;;;;;;;26.10;3.88;;;21.00;99.90;;;;;;5077393;28;20353;-72
2022/11/19 08:48:03;;;;;;;27.27;3.80;;;21.00;99.90;;;;;;5096065;28;20089;-72
2022/11/19 08:50:30;;;;;;;29.02;4.65;;;20.90;99.90;;;;;;5095085;28;20491;-73
2022/11/19 08:53:02;;;;;;;31.13;3.92;;;20.80;99.90;;;;;;5094732;28;20103;-72
2022/11/19 08:55:29;;;;;;;29.70;3.47;;;20.60;99.90;;;;;;5094682;28;20017;-72
2022/11/19 08:58:03;;;;;;;27.80;4.03;;;20.70;99.90;;;;;;5094754;28;20102;-72
2022/11/19 09:00:30;;;;;;;28.02;4.07;;;20.70;99.90;;;;;;5094891;28;20032;-72
2022/11/19 09:02:56;;;;;;;;;;;20.70;99.90;;;;;;5094873;28;20032;-73
2022/11/19 09:05:22;;;;;;;31.52;3.60;;;20.70;99.90;;;;;;5094274;28;19965;-73
2022/11/19 09:07:48;;;;;;;23.83;2.75;;;20.70;99.90;;;;;;5094360;28;20042;-72
2022/11/19 09:10:14;;;;;;;26.63;4.13;;;20.80;99.90;;;;;;5094242;28;20075;-73
2022/11/19 09:12:40;;;;;;;24.02;3.15;;;20.80;99.90;;;;;;5094658;28;20119;-72
2022/11/19 09:15:07;;;;;;;23.23;3.00;;;20.90;99.90;;;;;;5094776;28;20060;-73
2022/11/19 09:17:34;;;;;;;29.92;3.53;;;20.90;99.90;;;;;;5095023;28;20067;-73
2022/11/19 09:20:00;;;;;;;;;;;20.90;99.90;;;;;;5095315;28;20064;-73
2022/11/19 09:22:26;;;;;;;20.98;3.30;;;20.90;99.90;;;;;;5095090;28;20332;-72
2022/11/19 09:24:52;;;;;;;24.17;3.78;;;21.00;99.90;;;;;;5094841;28;20460;-73
2022/11/19 09:27:18;;;;;;;29.80;3.72;;;21.00;99.90;;;;;;5092199;28;20691;-71
2022/11/19 09:29:44;;;;;;;29.23;3.10;;;21.00;99.90;;;;;;5092760;28;20082;-72
2022/11/19 09:32:10;;;;;;;26.10;3.97;;;21.00;99.90;;;;;;5095098;28;20035;-73
2022/11/19 09:34:39;;;;;;;28.73;4.13;;;20.90;99.90;;;;;;5095315;28;20028;-73
2022/11/19 09:37:08;;;;;;;41.00;5.18;;;20.90;99.90;;;;;;5076302;28;20386;-73
2022/11/19 09:39:35;;;;;;;39.38;4.03;;;20.90;99.90;;;;;;5094532;28;20078;-73
2022/11/19 09:42:26;;;;;;;22.67;3.25;;;20.90;99.90;;;;;;5094410;28;20032;-73
2022/11/19 09:45:22;;;;;;;29.60;3.53;;;20.90;99.90;;;;;;5076332;28;20306;-73
2022/11/19 09:47:54;;;;;;;;;;;21.00;99.90;;;;;;5032363;28;20033;-72
2022/11/19 09:50:32;;;;;;;22.00;3.95;;;21.20;99.90;;;;;;5031717;28;20368;-72
2022/11/19 09:53:08;;;;;;;18.48;3.88;;;21.30;99.90;;;;;;5014814;28;20037;-72
2022/11/19 09:55:40;;;;;;;34.72;6.25;;;21.30;99.90;;;;;;5031784;28;20446;-72
2022/11/19 09:58:30;;;;;;;32.13;4.78;;;21.30;99.90;;;;;;5031730;28;20155;-72
2022/11/19 10:00:58;;;;;;;24.83;4.50;;;21.30;99.90;;;;;;5031448;28;20065;-72
2022/11/19 10:03:25;;;;;;;19.30;3.40;;;21.20;99.90;;;;;;5031244;28;20060;-73
2022/11/19 10:06:04;;;;;;;22.55;3.13;;;21.30;99.90;;;;;;5031377;28;20099;-72
2022/11/19 10:08:58;;;;;;;26.45;3.25;;;21.30;99.90;;;;;;5014509;28;20033;-72
2022/11/19 10:12:00;;;;;;;20.02;3.17;;;21.40;99.90;;;;;;5014079;28;20090;-73
2022/11/19 10:15:06;;;;;;;25.55;2.88;;;21.40;99.90;;;;;;5031420;28;20554;-74
2022/11/19 10:17:46;;;;;;;18.20;3.30;;;21.40;99.90;;;;;;5031035;28;20099;-73
2022/11/19 10:20:49;;;;;;;14.07;2.78;;;21.70;99.90;;;;;;5031047;28;20466;-73
2022/11/19 10:23:50;;;;;;;20.00;2.90;;;22.00;99.90;;;;;;5028080;28;20037;-73
2022/11/19 10:26:29;;;;;;;17.13;3.47;;;22.40;99.90;;;;;;5073309;28;20025;-73
2022/11/19 10:28:57;;;;;;;17.55;3.30;;;22.40;99.90;;;;;;5072116;28;20035;-73
2022/11/19 10:31:46;;;;;;;14.40;3.00;;;22.50;99.90;;;;;;5072022;28;20027;-73
2022/11/19 10:34:17;;;;;;;16.55;3.15;;;22.70;99.90;;;;;;5071865;28;20071;-74
2022/11/19 10:36:54;;;;;;;16.52;2.35;;;22.90;99.90;;;;;;5072637;28;20112;-74
2022/11/19 10:39:35;;;;;;;17.33;2.65;;;23.10;99.90;;;;;;5073002;28;20017;-73
2022/11/19 10:42:27;;;;;;;15.13;3.03;;;23.20;99.90;;;;;;5073000;28;20397;-73
2022/11/19 10:44:59;;;;;;;15.57;2.20;;;23.10;99.90;;;;;;5072035;28;20059;-74
2022/11/19 10:47:38;;;;;;;14.65;2.55;;;23.00;99.90;;;;;;5072431;28;20028;-73
2022/11/19 10:50:05;;;;;;;11.43;1.92;;;22.80;99.90;;;;;;5072884;28;20078;-72
2022/11/19 10:52:42;;;;;;;9.63;2.05;;;23.00;99.90;;;;;;5072312;28;20036;-74
2022/11/19 10:55:24;;;;;;;6.25;1.80;;;23.40;99.90;;;;;;5072625;28;20077;-74
2022/11/19 10:58:05;;;;;;;16.13;2.75;;;23.60;99.90;;;;;;5072721;28;20360;-72
2022/11/19 11:00:32;;;;;;;12.77;1.83;;;23.70;99.90;;;;;;5072513;28;20445;-72
2022/11/19 11:03:03;;;;;;;10.75;2.30;;;23.90;99.90;;;;;;5074041;28;20016;-72
2022/11/19 11:05:30;;;;;;;12.10;2.15;;;24.00;99.90;;;;;;5083390;28;20372;-72
2022/11/19 11:08:00;;;;;;;13.25;2.13;;;24.20;99.90;;;;;;5092045;28;20016;-71
2022/11/19 11:10:30;;;;;;;19.13;2.25;;;24.20;99.90;;;;;;5096922;28;20108;-72
2022/11/19 11:15:49;;;;;;;15.80;2.30;;;24.10;99.90;;;;;;5112399;28;20080;-73
2022/11/19 11:18:17;;;;;;;8.48;1.90;;;23.70;99.90;;;;;;5112548;28;20026;-71
2022/11/19 11:20:51;;;;;;;15.30;2.25;;;23.80;99.90;;;;;;5112208;28;20099;-72
2022/11/19 11:23:23;;;;;;;16.83;2.60;;;23.90;99.90;;;;;;5112685;28;20016;-73
2022/11/19 11:26:17;;;;;;;21.38;2.70;;;23.90;99.90;;;;;;5112617;28;20496;-70
2022/11/19 11:29:06;;;;;;;15.93;2.27;;;23.70;99.90;;;;;;5107069;28;20506;-72
2022/11/19 11:31:44;;;;;;;11.38;1.90;;;23.20;99.90;;;;;;5112188;28;20031;-73
2022/11/19 11:34:28;;;;;;;18.83;2.50;;;23.10;99.90;;;;;;5112617;28;20030;-72
2022/11/19 11:36:55;;;;;;;8.70;1.75;;;22.90;99.90;;;;;;5112237;28;20035;-72
2022/11/19 11:39:28;;;;;;;13.43;2.17;;;23.00;99.90;;;;;;5111991;28;20042;-72
2022/11/19 11:41:56;;;;;;;12.43;2.60;;;23.40;99.90;;;;;;5112242;28;20141;-73
2022/11/19 11:44:34;;;;;;;15.02;2.28;;;23.50;99.90;;;;;;5093569;28;20028;-72
2022/11/19 11:47:11;;;;;;;16.05;2.08;;;23.60;99.90;;;;;;5112268;28;20101;-72
2022/11/19 11:49:41;;;;;;;12.90;2.47;;;23.60;99.90;;;;;;5112401;28;20502;-72
2022/11/19 11:52:29;;;;;;;15.15;2.10;;;23.30;99.90;;;;;;5112349;28;20038;-72
2022/11/19 11:55:04;;;;;;;16.70;2.50;;;23.20;99.90;;;;;;5112780;28;20154;-72
2022/11/19 11:57:33;;;;;;;22.35;2.83;;;23.30;99.90;;;;;;5112006;28;20130;-73
2022/11/19 12:00:02;;;;;;;15.77;2.13;;;23.40;99.90;;;;;;5112534;28;20106;-73
2022/11/19 12:02:31;;;;;;;14.05;2.63;;;23.50;99.90;;;;;;5111681;28;20019;-73
2022/11/19 12:05:10;;;;;;;18.50;2.15;;;23.80;99.90;;;;;;5111494;28;20087;-73
2022/11/19 12:08:02;;;;;;;16.80;2.22;;;23.70;99.90;;;;;;5111949;28;20019;-74
2022/11/19 12:11:12;;;;;;;21.20;2.85;;;23.40;99.90;;;;;;5112099;28;20039;-73
2022/11/19 12:13:49;;;;;;;28.02;3.20;;;23.10;99.90;;;;;;5112473;28;20024;-74
2022/11/19 12:16:33;;;;;;;20.25;2.47;;;23.00;99.90;;;;;;5112621;28;20032;-73
2022/11/19 12:19:21;;;;;;;15.93;2.47;;;22.90;99.90;;;;;;5112593;28;20368;-72
2022/11/19 12:22:11;;;;;;;11.68;2.35;;;22.90;99.90;;;;;;5112475;28;20115;-73
2022/11/19 12:24:50;;;;;;;14.15;2.38;;;22.70;99.90;;;;;;5063365;28;20096;-74
2022/11/19 12:27:42;;;;;;;14.52;2.60;;;22.60;99.90;;;;;;5112701;28;20062;-73
2022/11/19 12:30:12;;;;;;;9.23;2.97;;;22.40;99.90;;;;;;5094263;28;20055;-73
2022/11/19 12:33:11;;;;;;;20.42;2.72;;;22.30;99.90;;;;;;5112066;28;20459;-72
2022/11/19 12:35:53;;;;;;;17.65;2.55;;;22.10;99.90;;;;;;5112197;28;20072;-73
2022/11/19 12:38:19;;;;;;;18.17;2.70;;;21.90;99.90;;;;;;5112152;28;20042;-72
2022/11/19 12:41:21;;;;;;;21.38;3.03;;;21.70;99.90;;;;;;5112167;28;20028;-73
2022/11/19 12:43:57;;;;;;;16.27;2.40;;;21.70;99.90;;;;;;5112424;28;20091;-74
2022/11/19 12:46:54;;;;;;;27.27;3.13;;;21.80;99.90;;;;;;5111980;28;20070;-73
2022/11/19 12:49:25;;;;;;;21.48;3.28;;;21.80;99.90;;;;;;5103726;28;20038;-72
2022/11/19 12:51:58;;;;;;;20.17;3.53;;;21.80;99.90;;;;;;5055978;28;20116;-74
2022/11/19 12:54:40;;;;;;;21.30;3.10;;;21.90;99.90;;;;;;5052970;28;20024;-73
2022/11/19 12:57:43;;;;;;;21.50;3.45;;;21.90;99.90;;;;;;5073677;28;20094;-72
2022/11/19 13:00:11;;;;;;;15.90;2.88;;;21.80;99.90;;;;;;5075167;28;20518;-73
2022/11/19 13:03:02;;;;;;;17.65;2.80;;;21.80;99.90;;;;;;5075377;28;20065;-70
2022/11/19 13:05:59;;;;;;;22.45;3.72;;;21.80;99.90;;;;;;5075161;28;20040;-70
2022/11/19 13:08:33;;;;;;;19.75;3.50;;;21.80;99.90;;;;;;5075103;28;20027;-71
2022/11/19 13:11:11;;;;;;;22.13;4.00;;;21.90;99.90;;;;;;5074736;28;20362;-69
2022/11/19 13:13:43;;;;;;;16.88;3.65;;;21.80;99.90;;;;;;5074348;28;20107;-71
2022/11/19 13:16:18;;;;;;;18.77;3.92;;;21.70;99.90;;;;;;5074666;28;20025;-72
2022/11/19 13:18:48;;;;;;;15.07;2.78;;;21.70;99.90;;;;;;5075680;28;20090;-72
2022/11/19 13:21:46;;;;;;;20.85;4.15;;;21.60;99.90;;;;;;5075244;28;20017;-72
2022/11/19 13:24:50;;;;;;;20.98;3.70;;;21.40;99.90;;;;;;5075659;28;20472;-71